sensor_id;sensor_type;location;lat;lon;timestamp;pressure;altitude;pressure_sealevel;temperature;humidity
31225;BME280;17847;31.524;74.366;2023-04-05T00:02:07;98609.75;;;17.26;81.25
31225;BME280;17847;31.524;74.366;2023-04-05T00:04:38;98604.41;;;17.26;81.26
31225;BME280;17847;31.524;74.366;2023-04-05T00:07:18;98615.91;;;17.27;81.16
31225;BME280;17847;31.524;74.366;2023-04-05T00:09:49;98616.88;;;17.21;80.81
31225;BME280;17847;31.524;74.366;2023-04-05T00:12:19;98607.44;;;17.18;80.49
31225;BME280;17847;31.524;74.366;2023-04-05T00:14:49;98621.16;;;17.22;80.61
31225;BME280;17847;31.524;74.366;2023-04-05T00:17:18;98617.22;;;17.24;79.72
31225;BME280;17847;31.524;74.366;2023-04-05T00:19:48;98616.63;;;17.22;79.95
31225;BME280;17847;31.524;74.366;2023-04-05T00:22:25;98620.00;;;17.18;79.64
31225;BME280;17847;31.524;74.366;2023-04-05T00:24:55;98616.53;;;17.17;79.62
31225;BME280;17847;31.524;74.366;2023-04-05T00:27:24;98617.34;;;17.18;78.37
31225;BME280;17847;31.524;74.366;2023-04-05T00:29:54;98618.97;;;17.19;78.76
31225;BME280;17847;31.524;74.366;2023-04-05T00:32:23;98622.94;;;17.16;78.83
31225;BME280;17847;31.524;74.366;2023-04-05T00:34:55;98626.19;;;17.18;79.09
31225;BME280;17847;31.524;74.366;2023-04-05T00:37:25;98629.81;;;17.12;79.25
31225;BME280;17847;31.524;74.366;2023-04-05T00:39:54;98624.22;;;17.14;78.65
31225;BME280;17847;31.524;74.366;2023-04-05T00:42:26;98630.28;;;17.21;78.45
31225;BME280;17847;31.524;74.366;2023-04-05T00:44:55;98621.16;;;17.22;78.88
31225;BME280;17847;31.524;74.366;2023-04-05T00:47:27;98617.34;;;17.18;79.53
31225;BME280;17847;31.524;74.366;2023-04-05T00:49:57;98632.84;;;17.16;79.15
31225;BME280;17847;31.524;74.366;2023-04-05T00:52:28;98626.91;;;17.14;79.06
31225;BME280;17847;31.524;74.366;2023-04-05T00:54:58;98635.41;;;17.11;79.45
31225;BME280;17847;31.524;74.366;2023-04-05T00:57:28;98637.59;;;17.14;79.70
31225;BME280;17847;31.524;74.366;2023-04-05T00:59:59;98645.41;;;17.15;79.60
31225;BME280;17847;31.524;74.366;2023-04-05T01:05:11;98647.59;;;17.18;80.04
31225;BME280;17847;31.524;74.366;2023-04-05T01:08:17;98649.47;;;17.18;80.81
31225;BME280;17847;31.524;74.366;2023-04-05T01:10:53;98652.13;;;17.18;81.14
31225;BME280;17847;31.524;74.366;2023-04-05T01:13:28;98657.59;;;17.23;80.60
31225;BME280;17847;31.524;74.366;2023-04-05T01:15:58;98663.06;;;17.28;79.92
31225;BME280;17847;31.524;74.366;2023-04-05T01:18:28;98663.72;;;17.35;79.72
31225;BME280;17847;31.524;74.366;2023-04-05T01:21:30;98671.06;;;17.39;79.25
31225;BME280;17847;31.524;74.366;2023-04-05T01:35:51;98695.16;;;17.91;77.43
31225;BME280;17847;31.524;74.366;2023-04-05T01:38:24;98691.84;;;18.01;77.68
31225;BME280;17847;31.524;74.366;2023-04-05T01:40:55;98696.81;;;18.09;76.60
31225;BME280;17847;31.524;74.366;2023-04-05T01:43:25;98705.81;;;18.19;76.28
31225;BME280;17847;31.524;74.366;2023-04-05T01:45:54;98702.53;;;18.29;75.72
31225;BME280;17847;31.524;74.366;2023-04-05T01:48:23;98707.56;;;18.42;75.75
31225;BME280;17847;31.524;74.366;2023-04-05T01:50:53;98703.72;;;18.66;75.30
31225;BME280;17847;31.524;74.366;2023-04-05T01:53:22;98706.63;;;18.81;73.43
31225;BME280;17847;31.524;74.366;2023-04-05T01:55:52;98712.88;;;18.87;72.56
31225;BME280;17847;31.524;74.366;2023-04-05T01:58:21;98716.63;;;19.03;73.78
31225;BME280;17847;31.524;74.366;2023-04-05T02:00:53;98710.16;;;19.20;73.02
31225;BME280;17847;31.524;74.366;2023-04-05T02:03:24;98716.53;;;19.36;71.85
31225;BME280;17847;31.524;74.366;2023-04-05T02:05:53;98715.91;;;19.67;72.78
31225;BME280;17847;31.524;74.366;2023-04-05T02:08:24;98713.44;;;19.88;71.87
31225;BME280;17847;31.524;74.366;2023-04-05T02:10:53;98714.50;;;20.35;69.46
31225;BME280;17847;31.524;74.366;2023-04-05T02:13:23;98717.91;;;21.31;66.04
31225;BME280;17847;31.524;74.366;2023-04-05T02:15:54;98726.31;;;21.97;62.51
31225;BME280;17847;31.524;74.366;2023-04-05T02:18:25;98723.69;;;22.53;61.54
31225;BME280;17847;31.524;74.366;2023-04-05T02:21:06;98738.31;;;22.87;59.29
31225;BME280;17847;31.524;74.366;2023-04-05T02:23:38;98740.41;;;23.25;56.94
31225;BME280;17847;31.524;74.366;2023-04-05T02:26:07;98735.41;;;23.78;55.91
31225;BME280;17847;31.524;74.366;2023-04-05T02:28:37;98732.25;;;24.15;55.66
31225;BME280;17847;31.524;74.366;2023-04-05T02:31:10;98734.03;;;24.35;53.94
31225;BME280;17847;31.524;74.366;2023-04-05T02:33:41;98741.50;;;24.53;53.39
31225;BME280;17847;31.524;74.366;2023-04-05T02:36:11;98746.69;;;24.83;53.24
31225;BME280;17847;31.524;74.366;2023-04-05T02:38:41;98754.69;;;25.03;51.45
31225;BME280;17847;31.524;74.366;2023-04-05T02:41:10;98755.22;;;25.00;51.25
31225;BME280;17847;31.524;74.366;2023-04-05T02:43:40;98752.72;;;25.09;51.53
31225;BME280;17847;31.524;74.366;2023-04-05T02:46:10;98758.66;;;24.77;51.36
31225;BME280;17847;31.524;74.366;2023-04-05T02:48:41;98764.81;;;24.49;53.63
31225;BME280;17847;31.524;74.366;2023-04-05T02:51:13;98759.50;;;24.73;52.18
31225;BME280;17847;31.524;74.366;2023-04-05T02:53:42;98769.53;;;24.33;55.32
31225;BME280;17847;31.524;74.366;2023-04-05T02:56:15;98779.59;;;24.23;55.23
31225;BME280;17847;31.524;74.366;2023-04-05T02:58:47;98780.75;;;24.06;52.79
31225;BME280;17847;31.524;74.366;2023-04-05T03:01:23;98791.84;;;24.05;55.02
31225;BME280;17847;31.524;74.366;2023-04-05T03:03:53;98790.78;;;24.01;54.27
31225;BME280;17847;31.524;74.366;2023-04-05T03:06:22;98790.19;;;24.09;54.89
31225;BME280;17847;31.524;74.366;2023-04-05T03:08:52;98805.13;;;24.01;56.35
31225;BME280;17847;31.524;74.366;2023-04-05T03:11:24;98797.56;;;23.98;54.40
31225;BME280;17847;31.524;74.366;2023-04-05T03:13:57;98801.94;;;23.84;55.17
31225;BME280;17847;31.524;74.366;2023-04-05T03:16:43;98805.81;;;23.63;53.41
31225;BME280;17847;31.524;74.366;2023-04-05T03:19:23;98812.56;;;23.60;54.20
31225;BME280;17847;31.524;74.366;2023-04-05T03:22:00;98806.56;;;23.68;53.63
31225;BME280;17847;31.524;74.366;2023-04-05T03:24:34;98806.84;;;23.72;54.17
31225;BME280;17847;31.524;74.366;2023-04-05T03:27:07;98808.16;;;23.90;54.86
31225;BME280;17847;31.524;74.366;2023-04-05T03:29:52;98808.41;;;23.88;54.77
31225;BME280;17847;31.524;74.366;2023-04-05T03:32:21;98803.81;;;23.94;52.16
31225;BME280;17847;31.524;74.366;2023-04-05T03:34:58;98819.16;;;24.08;53.51
31225;BME280;17847;31.524;74.366;2023-04-05T03:37:33;98814.31;;;24.00;55.92
31225;BME280;17847;31.524;74.366;2023-04-05T03:40:05;98812.19;;;23.92;53.61
31225;BME280;17847;31.524;74.366;2023-04-05T03:42:37;98811.69;;;23.80;52.91
31225;BME280;17847;31.524;74.366;2023-04-05T03:45:07;98809.97;;;23.99;55.11
31225;BME280;17847;31.524;74.366;2023-04-05T03:47:36;98814.56;;;24.04;53.79
31225;BME280;17847;31.524;74.366;2023-04-05T03:50:07;98819.69;;;24.10;53.15
31225;BME280;17847;31.524;74.366;2023-04-05T03:52:37;98820.56;;;23.91;53.60
31225;BME280;17847;31.524;74.366;2023-04-05T03:55:07;98828.69;;;23.96;54.36
31225;BME280;17847;31.524;74.366;2023-04-05T03:57:37;98823.81;;;23.98;54.74
31225;BME280;17847;31.524;74.366;2023-04-05T04:00:20;98830.53;;;24.05;54.11
31225;BME280;17847;31.524;74.366;2023-04-05T04:03:14;98830.53;;;24.15;54.75
31225;BME280;17847;31.524;74.366;2023-04-05T04:05:47;98826.16;;;24.25;53.86
31225;BME280;17847;31.524;74.366;2023-04-05T04:08:18;98822.88;;;24.33;53.82
31225;BME280;17847;31.524;74.366;2023-04-05T04:10:48;98813.16;;;24.22;52.76
31225;BME280;17847;31.524;74.366;2023-04-05T04:13:24;98812.09;;;24.12;53.50
31225;BME280;17847;31.524;74.366;2023-04-05T04:16:11;98820.69;;;24.30;51.94
31225;BME280;17847;31.524;74.366;2023-04-05T04:18:43;98823.41;;;24.30;51.72
31225;BME280;17847;31.524;74.366;2023-04-05T04:21:27;98826.38;;;24.33;52.24
31225;BME280;17847;31.524;74.366;2023-04-05T04:24:17;98826.72;;;24.66;53.04
31225;BME280;17847;31.524;74.366;2023-04-05T04:26:52;98835.34;;;24.78;52.08
31225;BME280;17847;31.524;74.366;2023-04-05T04:29:28;98837.63;;;24.99;51.70
31225;BME280;17847;31.524;74.366;2023-04-05T04:32:17;98843.31;;;25.03;49.41
31225;BME280;17847;31.524;74.366;2023-04-05T04:35:15;98838.75;;;25.27;51.12
31225;BME280;17847;31.524;74.366;2023-04-05T04:38:15;98841.06;;;25.44;49.01
31225;BME280;17847;31.524;74.366;2023-04-05T04:41:10;98843.50;;;25.74;49.55
31225;BME280;17847;31.524;74.366;2023-04-05T04:43:46;98844.06;;;26.19;48.26
31225;BME280;17847;31.524;74.366;2023-04-05T04:46:18;98840.38;;;26.52;47.31
31225;BME280;17847;31.524;74.366;2023-04-05T04:48:56;98834.66;;;26.91;46.73
31225;BME280;17847;31.524;74.366;2023-04-05T04:51:32;98830.19;;;27.00;46.44
31225;BME280;17847;31.524;74.366;2023-04-05T04:54:02;98826.56;;;27.37;45.17
31225;BME280;17847;31.524;74.366;2023-04-05T04:56:31;98821.59;;;27.72;45.57
31225;BME280;17847;31.524;74.366;2023-04-05T04:59:01;98831.09;;;27.60;44.37
31225;BME280;17847;31.524;74.366;2023-04-05T05:01:30;98822.03;;;26.44;43.11
31225;BME280;17847;31.524;74.366;2023-04-05T05:04:02;98823.69;;;27.15;44.83
31225;BME280;17847;31.524;74.366;2023-04-05T05:06:35;98812.44;;;28.08;45.25
31225;BME280;17847;31.524;74.366;2023-04-05T05:09:05;98811.94;;;27.93;42.33
31225;BME280;17847;31.524;74.366;2023-04-05T05:11:55;98814.78;;;27.88;41.37
31225;BME280;17847;31.524;74.366;2023-04-05T05:14:27;98816.78;;;28.09;40.20
31225;BME280;17847;31.524;74.366;2023-04-05T05:16:56;98814.97;;;27.78;42.44
31225;BME280;17847;31.524;74.366;2023-04-05T05:19:29;98813.59;;;28.57;44.58
31225;BME280;17847;31.524;74.366;2023-04-05T05:21:59;98811.75;;;28.30;42.49
31225;BME280;17847;31.524;74.366;2023-04-05T05:24:29;98807.84;;;28.72;43.71
31225;BME280;17847;31.524;74.366;2023-04-05T05:26:58;98804.97;;;28.77;40.31
31225;BME280;17847;31.524;74.366;2023-04-05T05:29:27;98806.78;;;28.68;40.36
31225;BME280;17847;31.524;74.366;2023-04-05T05:31:57;98803.50;;;28.93;38.24
31225;BME280;17847;31.524;74.366;2023-04-05T05:34:26;98804.53;;;28.84;40.17
31225;BME280;17847;31.524;74.366;2023-04-05T05:36:57;98798.28;;;28.83;38.63
31225;BME280;17847;31.524;74.366;2023-04-05T05:39:27;98806.00;;;29.12;41.34
31225;BME280;17847;31.524;74.366;2023-04-05T05:41:56;98793.72;;;29.45;39.09
31225;BME280;17847;31.524;74.366;2023-04-05T05:44:26;98801.53;;;29.61;40.71
31225;BME280;17847;31.524;74.366;2023-04-05T05:46:56;98795.09;;;29.65;35.34
31225;BME280;17847;31.524;74.366;2023-04-05T05:49:26;98798.81;;;29.69;38.02
31225;BME280;17847;31.524;74.366;2023-04-05T05:51:56;98793.38;;;29.38;39.80
31225;BME280;17847;31.524;74.366;2023-04-05T05:54:26;98792.28;;;29.48;39.07
31225;BME280;17847;31.524;74.366;2023-04-05T05:56:55;98795.03;;;29.26;39.48
31225;BME280;17847;31.524;74.366;2023-04-05T05:59:25;98797.84;;;29.34;37.89
31225;BME280;17847;31.524;74.366;2023-04-05T06:01:55;98794.97;;;28.73;31.57
31225;BME280;17847;31.524;74.366;2023-04-05T06:04:24;98794.16;;;28.50;37.07
31225;BME280;17847;31.524;74.366;2023-04-05T06:06:56;98792.53;;;28.85;34.57
31225;BME280;17847;31.524;74.366;2023-04-05T06:09:27;98790.50;;;29.43;34.33
31225;BME280;17847;31.524;74.366;2023-04-05T06:11:56;98788.16;;;29.28;37.28
31225;BME280;17847;31.524;74.366;2023-04-05T06:14:26;98784.06;;;29.17;34.21
31225;BME280;17847;31.524;74.366;2023-04-05T06:16:57;98783.50;;;29.29;35.75
31225;BME280;17847;31.524;74.366;2023-04-05T06:19:26;98782.31;;;29.43;39.22
31225;BME280;17847;31.524;74.366;2023-04-05T06:21:56;98776.63;;;29.31;35.83
31225;BME280;17847;31.524;74.366;2023-04-05T06:24:26;98779.03;;;29.64;37.21
31225;BME280;17847;31.524;74.366;2023-04-05T06:26:59;98772.66;;;29.37;35.08
31225;BME280;17847;31.524;74.366;2023-04-05T06:29:29;98767.38;;;29.41;34.47
31225;BME280;17847;31.524;74.366;2023-04-05T06:31:59;98769.63;;;29.17;36.28
31225;BME280;17847;31.524;74.366;2023-04-05T06:34:29;98766.78;;;28.99;30.62
31225;BME280;17847;31.524;74.366;2023-04-05T06:36:58;98760.78;;;29.11;37.12
31225;BME280;17847;31.524;74.366;2023-04-05T06:39:28;98770.03;;;28.43;31.81
31225;BME280;17847;31.524;74.366;2023-04-05T06:41:57;98763.97;;;29.13;35.15
31225;BME280;17847;31.524;74.366;2023-04-05T06:44:36;98756.09;;;29.03;35.04
31225;BME280;17847;31.524;74.366;2023-04-05T06:47:06;98759.69;;;28.90;33.42
31225;BME280;17847;31.524;74.366;2023-04-05T06:49:35;98753.41;;;29.12;32.00
31225;BME280;17847;31.524;74.366;2023-04-05T06:52:04;98759.56;;;28.59;33.92
31225;BME280;17847;31.524;74.366;2023-04-05T06:54:37;98752.03;;;29.00;33.32
31225;BME280;17847;31.524;74.366;2023-04-05T06:57:07;98749.06;;;29.11;32.11
31225;BME280;17847;31.524;74.366;2023-04-05T06:59:36;98744.63;;;28.70;29.86
31225;BME280;17847;31.524;74.366;2023-04-05T07:02:05;98743.66;;;28.52;33.30
31225;BME280;17847;31.524;74.366;2023-04-05T07:04:35;98746.19;;;28.85;33.55
31225;BME280;17847;31.524;74.366;2023-04-05T07:07:05;98738.44;;;29.09;36.64
31225;BME280;17847;31.524;74.366;2023-04-05T07:09:35;98725.84;;;29.22;32.94
31225;BME280;17847;31.524;74.366;2023-04-05T07:12:07;98730.84;;;28.97;31.34
31225;BME280;17847;31.524;74.366;2023-04-05T07:14:37;98722.13;;;28.87;33.88
31225;BME280;17847;31.524;74.366;2023-04-05T07:17:06;98714.28;;;29.16;35.44
31225;BME280;17847;31.524;74.366;2023-04-05T07:19:36;98717.47;;;29.49;34.11
31225;BME280;17847;31.524;74.366;2023-04-05T07:22:05;98715.25;;;29.51;32.46
31225;BME280;17847;31.524;74.366;2023-04-05T07:24:34;98711.84;;;29.45;31.16
31225;BME280;17847;31.524;74.366;2023-04-05T07:27:04;98713.97;;;29.57;35.71
31225;BME280;17847;31.524;74.366;2023-04-05T07:29:33;98707.50;;;29.44;31.39
31225;BME280;17847;31.524;74.366;2023-04-05T07:32:06;98706.75;;;29.22;33.47
31225;BME280;17847;31.524;74.366;2023-04-05T07:34:36;98696.56;;;29.36;34.81
31225;BME280;17847;31.524;74.366;2023-04-05T07:37:06;98693.66;;;29.32;37.03
31225;BME280;17847;31.524;74.366;2023-04-05T07:39:36;98691.41;;;29.34;34.47
31225;BME280;17847;31.524;74.366;2023-04-05T07:42:06;98686.41;;;28.97;33.02
31225;BME280;17847;31.524;74.366;2023-04-05T07:44:35;98686.53;;;28.70;34.05
31225;BME280;17847;31.524;74.366;2023-04-05T07:47:04;98682.31;;;28.86;37.06
31225;BME280;17847;31.524;74.366;2023-04-05T07:49:33;98683.00;;;28.91;34.94
31225;BME280;17847;31.524;74.366;2023-04-05T07:52:05;98673.09;;;28.29;30.88
31225;BME280;17847;31.524;74.366;2023-04-05T07:54:35;98668.28;;;28.70;37.32
31225;BME280;17847;31.524;74.366;2023-04-05T07:57:07;98676.22;;;28.80;34.44
31225;BME280;17847;31.524;74.366;2023-04-05T07:59:37;98671.25;;;28.82;35.97
31225;BME280;17847;31.524;74.366;2023-04-05T08:02:06;98662.03;;;29.00;33.51
31225;BME280;17847;31.524;74.366;2023-04-05T08:04:41;98664.16;;;29.12;34.82
31225;BME280;17847;31.524;74.366;2023-04-05T08:07:11;98656.47;;;29.14;34.36
31225;BME280;17847;31.524;74.366;2023-04-05T08:09:41;98647.19;;;29.15;33.00
31225;BME280;17847;31.524;74.366;2023-04-05T08:12:10;98649.13;;;29.23;34.77
31225;BME280;17847;31.524;74.366;2023-04-05T08:14:39;98646.28;;;29.28;32.42
31225;BME280;17847;31.524;74.366;2023-04-05T08:17:09;98655.31;;;29.37;32.41
31225;BME280;17847;31.524;74.366;2023-04-05T08:19:39;98645.03;;;29.34;31.89
31225;BME280;17847;31.524;74.366;2023-04-05T08:22:09;98640.16;;;29.23;29.79
31225;BME280;17847;31.524;74.366;2023-04-05T08:24:38;98631.78;;;29.11;30.70
31225;BME280;17847;31.524;74.366;2023-04-05T08:27:07;98624.03;;;29.04;32.20
31225;BME280;17847;31.524;74.366;2023-04-05T08:29:37;98621.31;;;29.13;31.17
31225;BME280;17847;31.524;74.366;2023-04-05T08:32:07;98615.88;;;29.13;31.79
31225;BME280;17847;31.524;74.366;2023-04-05T08:34:36;98610.25;;;29.09;33.43
31225;BME280;17847;31.524;74.366;2023-04-05T08:37:06;98610.84;;;28.97;34.02
31225;BME280;17847;31.524;74.366;2023-04-05T08:39:35;98602.06;;;29.09;34.41
31225;BME280;17847;31.524;74.366;2023-04-05T08:42:15;98589.34;;;28.65;29.43
31225;BME280;17847;31.524;74.366;2023-04-05T08:44:46;98580.19;;;28.61;31.96
31225;BME280;17847;31.524;74.366;2023-04-05T08:47:22;98585.28;;;28.76;30.78
31225;BME280;17847;31.524;74.366;2023-04-05T08:49:52;98577.47;;;28.92;29.03
31225;BME280;17847;31.524;74.366;2023-04-05T08:52:22;98572.34;;;28.99;30.87
31225;BME280;17847;31.524;74.366;2023-04-05T08:54:53;98577.06;;;29.07;31.13
31225;BME280;17847;31.524;74.366;2023-04-05T08:57:25;98572.06;;;29.09;31.41
31225;BME280;17847;31.524;74.366;2023-04-05T08:59:58;98568.38;;;29.05;28.23
31225;BME280;17847;31.524;74.366;2023-04-05T09:02:29;98573.50;;;28.98;32.42
31225;BME280;17847;31.524;74.366;2023-04-05T09:05:01;98568.63;;;28.86;33.56
31225;BME280;17847;31.524;74.366;2023-04-05T09:07:31;98568.09;;;28.76;31.51
31225;BME280;17847;31.524;74.366;2023-04-05T09:10:00;98557.13;;;28.67;31.35
31225;BME280;17847;31.524;74.366;2023-04-05T09:12:31;98563.88;;;28.39;28.35
31225;BME280;17847;31.524;74.366;2023-04-05T09:15:01;98555.34;;;28.32;28.43
31225;BME280;17847;31.524;74.366;2023-04-05T09:17:31;98553.44;;;28.32;32.44
31225;BME280;17847;31.524;74.366;2023-04-05T09:20:02;98550.47;;;28.51;32.02
31225;BME280;17847;31.524;74.366;2023-04-05T09:22:42;98549.88;;;28.54;31.82
31225;BME280;17847;31.524;74.366;2023-04-05T09:25:39;98550.94;;;28.75;32.26
31225;BME280;17847;31.524;74.366;2023-04-05T09:28:10;98551.75;;;28.76;31.31
31225;BME280;17847;31.524;74.366;2023-04-05T09:30:45;98544.88;;;28.56;28.24
31225;BME280;17847;31.524;74.366;2023-04-05T09:33:18;98537.84;;;28.64;28.51
31225;BME280;17847;31.524;74.366;2023-04-05T09:35:49;98539.63;;;28.68;29.45
31225;BME280;17847;31.524;74.366;2023-04-05T09:38:43;98525.09;;;28.73;32.45
31225;BME280;17847;31.524;74.366;2023-04-05T09:41:12;98524.78;;;28.74;33.30
31225;BME280;17847;31.524;74.366;2023-04-05T09:43:42;98527.06;;;28.81;34.04
31225;BME280;17847;31.524;74.366;2023-04-05T09:46:33;98525.78;;;28.78;32.04
31225;BME280;17847;31.524;74.366;2023-04-05T09:49:06;98518.91;;;28.81;33.73
31225;BME280;17847;31.524;74.366;2023-04-05T09:51:38;98520.63;;;28.46;29.92
31225;BME280;17847;31.524;74.366;2023-04-05T09:54:10;98504.69;;;28.31;31.33
31225;BME280;17847;31.524;74.366;2023-04-05T09:56:40;98496.28;;;28.41;33.19
31225;BME280;17847;31.524;74.366;2023-04-05T09:59:21;98505.78;;;28.61;32.55
31225;BME280;17847;31.524;74.366;2023-04-05T10:01:51;98496.63;;;28.56;31.48
31225;BME280;17847;31.524;74.366;2023-04-05T10:04:23;98497.75;;;28.55;30.30
31225;BME280;17847;31.524;74.366;2023-04-05T10:06:53;98499.88;;;28.58;30.75
31225;BME280;17847;31.524;74.366;2023-04-05T10:09:22;98500.31;;;28.52;31.86
31225;BME280;17847;31.524;74.366;2023-04-05T10:11:52;98496.31;;;28.49;31.09
31225;BME280;17847;31.524;74.366;2023-04-05T10:14:21;98489.72;;;28.50;31.56
31225;BME280;17847;31.524;74.366;2023-04-05T10:17:11;98503.88;;;28.61;32.79
31225;BME280;17847;31.524;74.366;2023-04-05T10:20:08;98482.22;;;28.65;32.15
31225;BME280;17847;31.524;74.366;2023-04-05T10:28:31;98475.16;;;28.24;29.32
31225;BME280;17847;31.524;74.366;2023-04-05T10:34:04;98461.38;;;28.21;33.54
31225;BME280;17847;31.524;74.366;2023-04-05T10:36:41;98461.03;;;28.13;31.89
31225;BME280;17847;31.524;74.366;2023-04-05T10:39:26;98457.44;;;28.04;31.80
31225;BME280;17847;31.524;74.366;2023-04-05T10:42:03;98458.53;;;28.03;33.52
31225;BME280;17847;31.524;74.366;2023-04-05T10:44:35;98466.38;;;27.96;33.46
31225;BME280;17847;31.524;74.366;2023-04-05T10:47:07;98461.97;;;27.87;33.29
31225;BME280;17847;31.524;74.366;2023-04-05T10:49:48;98463.53;;;27.79;35.65
31225;BME280;17847;31.524;74.366;2023-04-05T10:52:22;98448.63;;;27.77;34.22
31225;BME280;17847;31.524;74.366;2023-04-05T10:54:52;98442.19;;;27.73;35.58
31225;BME280;17847;31.524;74.366;2023-04-05T10:57:24;98440.56;;;27.72;33.26
31225;BME280;17847;31.524;74.366;2023-04-05T10:59:55;98429.50;;;27.68;33.89
31225;BME280;17847;31.524;74.366;2023-04-05T11:02:28;98437.00;;;27.62;36.14
31225;BME280;17847;31.524;74.366;2023-04-05T11:05:02;98441.78;;;27.57;34.01
31225;BME280;17847;31.524;74.366;2023-04-05T11:07:43;98446.53;;;27.51;34.37
31225;BME280;17847;31.524;74.366;2023-04-05T11:10:16;98453.66;;;27.47;35.27
31225;BME280;17847;31.524;74.366;2023-04-05T11:18:10;98473.56;;;27.34;35.99
31225;BME280;17847;31.524;74.366;2023-04-05T11:20:53;98473.97;;;27.27;35.83
31225;BME280;17847;31.524;74.366;2023-04-05T11:24:00;98461.22;;;27.14;36.57
31225;BME280;17847;31.524;74.366;2023-04-05T11:26:32;98468.00;;;27.03;34.84
31225;BME280;17847;31.524;74.366;2023-04-05T11:29:02;98470.84;;;26.98;36.28
31225;BME280;17847;31.524;74.366;2023-04-05T11:31:31;98462.59;;;26.90;35.70
31225;BME280;17847;31.524;74.366;2023-04-05T11:34:05;98457.34;;;26.79;36.94
31225;BME280;17847;31.524;74.366;2023-04-05T11:36:44;98455.81;;;26.73;38.74
31225;BME280;17847;31.524;74.366;2023-04-05T11:42:04;98444.75;;;26.56;37.17
31225;BME280;17847;31.524;74.366;2023-04-05T11:44:47;98449.53;;;26.51;37.68
31225;BME280;17847;31.524;74.366;2023-04-05T11:47:19;98454.94;;;26.51;38.93
31225;BME280;17847;31.524;74.366;2023-04-05T11:49:50;98452.63;;;26.44;37.99
31225;BME280;17847;31.524;74.366;2023-04-05T11:52:20;98456.16;;;26.45;39.00
31225;BME280;17847;31.524;74.366;2023-04-05T11:54:50;98445.09;;;26.41;37.47
31225;BME280;17847;31.524;74.366;2023-04-05T11:57:22;98449.19;;;26.38;38.66
31225;BME280;17847;31.524;74.366;2023-04-05T11:59:52;98436.03;;;26.32;38.93
31225;BME280;17847;31.524;74.366;2023-04-05T12:02:21;98438.75;;;26.32;38.16
31225;BME280;17847;31.524;74.366;2023-04-05T12:04:56;98450.00;;;26.25;38.09
31225;BME280;17847;31.524;74.366;2023-04-05T12:07:27;98462.28;;;26.23;38.65
31225;BME280;17847;31.524;74.366;2023-04-05T12:10:03;98475.03;;;26.22;38.49
31225;BME280;17847;31.524;74.366;2023-04-05T12:12:40;98478.03;;;26.21;37.61
31225;BME280;17847;31.524;74.366;2023-04-05T12:15:11;98488.66;;;26.17;38.79
31225;BME280;17847;31.524;74.366;2023-04-05T12:17:49;98493.38;;;26.12;38.66
31225;BME280;17847;31.524;74.366;2023-04-05T12:20:23;98504.63;;;26.05;37.93
31225;BME280;17847;31.524;74.366;2023-04-05T12:22:54;98513.59;;;26.06;37.32
31225;BME280;17847;31.524;74.366;2023-04-05T12:25:25;98520.91;;;26.05;37.89
31225;BME280;17847;31.524;74.366;2023-04-05T12:27:55;98532.66;;;26.01;37.79
31225;BME280;17847;31.524;74.366;2023-04-05T12:30:24;98541.31;;;26.03;37.37
31225;BME280;17847;31.524;74.366;2023-04-05T12:32:56;98547.34;;;26.00;37.42
31225;BME280;17847;31.524;74.366;2023-04-05T12:35:29;98551.16;;;25.99;37.73
31225;BME280;17847;31.524;74.366;2023-04-05T12:38:04;98549.25;;;25.99;38.51
31225;BME280;17847;31.524;74.366;2023-04-05T12:40:34;98550.72;;;25.91;39.64
31225;BME280;17847;31.524;74.366;2023-04-05T12:43:06;98545.66;;;25.85;40.26
31225;BME280;17847;31.524;74.366;2023-04-05T12:45:36;98550.97;;;25.76;41.18
31225;BME280;17847;31.524;74.366;2023-04-05T12:48:18;98555.44;;;25.67;42.19
31225;BME280;17847;31.524;74.366;2023-04-05T12:50:48;98560.53;;;25.50;43.99
31225;BME280;17847;31.524;74.366;2023-04-05T12:53:25;98559.31;;;25.42;43.86
31225;BME280;17847;31.524;74.366;2023-04-05T12:55:57;98565.88;;;25.36;44.66
31225;BME280;17847;31.524;74.366;2023-04-05T12:58:36;98571.47;;;25.26;45.11
31225;BME280;17847;31.524;74.366;2023-04-05T13:01:07;98572.38;;;25.17;44.53
31225;BME280;17847;31.524;74.366;2023-04-05T13:03:38;98578.97;;;25.11;45.93
31225;BME280;17847;31.524;74.366;2023-04-05T13:06:07;98576.09;;;25.02;45.75
31225;BME280;17847;31.524;74.366;2023-04-05T13:08:37;98575.63;;;24.95;46.02
31225;BME280;17847;31.524;74.366;2023-04-05T13:11:06;98587.63;;;24.89;45.25
31225;BME280;17847;31.524;74.366;2023-04-05T13:13:35;98597.66;;;24.83;46.44
31225;BME280;17847;31.524;74.366;2023-04-05T13:16:05;98604.25;;;24.77;46.77
31225;BME280;17847;31.524;74.366;2023-04-05T13:18:34;98621.38;;;24.73;46.52
31225;BME280;17847;31.524;74.366;2023-04-05T13:21:04;98632.75;;;24.70;46.75
31225;BME280;17847;31.524;74.366;2023-04-05T13:23:38;98655.53;;;24.69;47.73
31225;BME280;17847;31.524;74.366;2023-04-05T13:26:08;98665.03;;;24.66;47.36
31225;BME280;17847;31.524;74.366;2023-04-05T13:28:37;98678.31;;;24.63;47.89
31225;BME280;17847;31.524;74.366;2023-04-05T13:31:07;98712.50;;;24.58;47.73
31225;BME280;17847;31.524;74.366;2023-04-05T13:33:36;98732.09;;;23.91;45.12
31225;BME280;17847;31.524;74.366;2023-04-05T13:36:06;98750.91;;;23.42;46.15
31225;BME280;17847;31.524;74.366;2023-04-05T13:38:36;98750.19;;;22.96;46.70
31225;BME280;17847;31.524;74.366;2023-04-05T13:41:06;98771.78;;;22.71;47.37
31225;BME280;17847;31.524;74.366;2023-04-05T13:43:35;98777.34;;;22.19;49.07
31225;BME280;17847;31.524;74.366;2023-04-05T13:46:05;98767.31;;;21.99;50.86
31225;BME280;17847;31.524;74.366;2023-04-05T13:48:34;98768.53;;;21.71;51.38
31225;BME280;17847;31.524;74.366;2023-04-05T13:51:04;98767.31;;;21.42;51.73